createdAt,value
2023-09-19T00:01:13.675Z,3.05
2023-09-19T00:03:43.750Z,3.13
2023-09-19T00:06:14.392Z,2.33
2023-09-19T00:08:45.145Z,3.55
2023-09-19T00:11:15.259Z,3.47
2023-09-19T00:13:44.421Z,4.45
2023-09-19T00:16:16.453Z,1.90
2023-09-19T00:18:44.486Z,1.48
2023-09-19T00:21:12.580Z,2.28
2023-09-19T00:23:42.124Z,2.88
2023-09-19T00:26:10.275Z,1.85
2023-09-19T00:28:40.657Z,2.50
2023-09-19T00:31:10.854Z,3.63
2023-09-19T00:33:42.049Z,1.95
2023-09-19T00:36:10.323Z,5.55
2023-09-19T00:38:41.352Z,2.42
2023-09-19T00:41:09.548Z,2.97
2023-09-19T00:43:42.146Z,3.30
2023-09-19T00:46:13.076Z,4.60
2023-09-19T00:48:45.525Z,2.42
2023-09-19T00:51:14.795Z,2.75
2023-09-19T00:53:47.360Z,4.10
2023-09-19T00:56:16.172Z,3.30
2023-09-19T00:58:45.566Z,3.22
2023-09-19T01:01:15.722Z,2.80
2023-09-19T01:03:51.212Z,2.47
2023-09-19T01:06:19.486Z,4.78
2023-09-19T01:08:47.485Z,2.90
2023-09-19T01:11:29.953Z,1.48
2023-09-19T01:14:05.999Z,3.58
2023-09-19T01:16:42.149Z,3.97
2023-09-19T01:19:41.663Z,2.13
2023-09-19T01:22:27.112Z,1.35
2023-09-19T01:25:34.911Z,2.38
2023-09-19T01:28:29.488Z,2.92
2023-09-19T01:31:01.096Z,3.65
2023-09-19T01:33:35.514Z,1.77
2023-09-19T01:36:04.744Z,1.48
2023-09-19T01:38:41.533Z,2.63
2023-09-19T01:41:17.994Z,2.95
2023-09-19T01:43:52.596Z,4.25
2023-09-19T01:46:32.271Z,2.25
2023-09-19T01:49:16.917Z,1.60
2023-09-19T01:51:53.276Z,3.72
2023-09-19T01:54:28.669Z,1.00
2023-09-19T01:57:16.667Z,2.22
2023-09-19T01:59:57.514Z,2.67
2023-09-19T02:02:31.531Z,6.15
2023-09-19T02:04:59.667Z,2.25
2023-09-19T02:07:28.617Z,4.40
2023-09-19T02:09:56.699Z,2.67
2023-09-19T02:12:30.222Z,5.85
2023-09-19T02:15:01.502Z,3.03
2023-09-19T02:17:34.883Z,4.03
2023-09-19T02:20:11.882Z,3.00
2023-09-19T02:22:43.975Z,2.97
2023-09-19T02:25:18.391Z,1.90
2023-09-19T02:27:46.404Z,1.92
2023-09-19T02:30:17.181Z,3.05
2023-09-19T02:32:47.257Z,2.63
2023-09-19T02:35:20.647Z,5.40
2023-09-19T02:37:55.058Z,2.35
2023-09-19T02:40:27.165Z,1.45
2023-09-19T02:42:57.712Z,2.28
2023-09-19T02:45:26.436Z,3.83
2023-09-19T02:47:59.479Z,4.55
2023-09-19T02:50:43.110Z,2.67
2023-09-19T02:53:14.976Z,4.00
2023-09-19T02:55:46.165Z,5.13
2023-09-19T02:58:17.559Z,5.10
2023-09-19T03:00:48.666Z,5.35
2023-09-19T03:03:25.819Z,1.67
2023-09-19T03:05:59.884Z,3.35
2023-09-19T03:08:28.053Z,3.03
2023-09-19T03:10:59.137Z,2.85
2023-09-19T03:13:27.311Z,3.67
2023-09-19T03:15:57.964Z,1.55
2023-09-19T03:18:28.301Z,2.85
2023-09-19T03:21:00.984Z,4.35
2023-09-19T03:23:29.951Z,4.03
2023-09-19T03:26:00.587Z,2.42
2023-09-19T03:28:29.021Z,6.38
2023-09-19T03:31:02.168Z,2.05
2023-09-19T03:33:34.074Z,2.55
2023-09-19T03:36:05.757Z,2.25
2023-09-19T03:38:35.251Z,3.00
2023-09-19T03:41:03.645Z,2.28
2023-09-19T03:43:37.529Z,1.98
2023-09-19T03:46:13.894Z,3.10
2023-09-19T03:48:46.551Z,2.28
2023-09-19T03:51:14.578Z,1.98
2023-09-19T03:53:42.607Z,1.85
2023-09-19T03:56:11.527Z,3.50
2023-09-19T03:58:46.754Z,2.30
2023-09-19T04:01:15.292Z,2.33
2023-09-19T04:03:49.595Z,4.28
2023-09-19T04:06:24.556Z,6.78
2023-09-19T04:08:52.700Z,2.45
2023-09-19T04:11:23.254Z,3.53
2023-09-19T04:13:51.278Z,2.83
2023-09-19T04:16:28.575Z,2.17
2023-09-19T04:18:59.607Z,4.10
2023-09-19T04:21:29.459Z,2.15
2023-09-19T04:24:00.203Z,2.88
2023-09-19T04:26:42.100Z,2.40
2023-09-19T04:29:15.253Z,4.35
2023-09-19T04:31:45.324Z,5.57
2023-09-19T04:34:18.392Z,1.80
2023-09-19T04:36:48.167Z,3.60
2023-09-19T04:39:19.198Z,4.10
2023-09-19T04:41:49.049Z,2.97
2023-09-19T04:44:17.829Z,1.75
2023-09-19T04:46:52.091Z,4.30
2023-09-19T04:49:23.446Z,3.83
2023-09-19T04:51:56.696Z,2.88
2023-09-19T04:54:24.720Z,2.60
2023-09-19T04:57:00.222Z,6.35
2023-09-19T04:59:29.375Z,2.25
2023-09-19T05:02:01.024Z,3.10
2023-09-19T05:04:29.640Z,3.03
2023-09-19T05:06:59.823Z,2.58
2023-09-19T05:09:27.873Z,2.90
2023-09-19T05:11:59.479Z,2.50
2023-09-19T05:14:27.457Z,2.75
2023-09-19T05:17:06.898Z,1.63
2023-09-19T05:19:36.237Z,2.10
2023-09-19T05:22:28.781Z,2.67
2023-09-19T05:24:56.860Z,3.33
2023-09-19T05:27:24.878Z,2.33
2023-09-19T05:29:54.199Z,2.20
2023-09-19T05:32:24.730Z,2.10
2023-09-19T05:34:57.534Z,3.30
2023-09-19T05:37:32.198Z,2.08
2023-09-19T05:40:00.293Z,3.05
2023-09-19T05:42:28.818Z,3.35
2023-09-19T05:44:56.852Z,2.92
2023-09-19T05:47:26.276Z,2.13
2023-09-19T05:49:54.813Z,3.17
2023-09-19T05:52:23.482Z,4.60
2023-09-19T05:54:53.098Z,5.05
2023-09-19T05:57:21.146Z,3.20
2023-09-19T05:59:51.624Z,1.85
2023-09-19T06:02:20.266Z,3.67
2023-09-19T06:04:48.373Z,4.05
2023-09-19T06:07:17.706Z,1.98
2023-09-19T06:09:45.807Z,4.25
2023-09-19T06:12:18.364Z,3.22
2023-09-19T06:14:46.455Z,2.33
2023-09-19T06:17:15.461Z,3.08
2023-09-19T06:19:48.463Z,2.28
2023-09-19T06:22:19.243Z,6.35
2023-09-19T06:24:55.896Z,1.95
2023-09-19T06:27:25.318Z,2.13
2023-09-19T06:29:56.209Z,3.03
2023-09-19T06:32:36.766Z,1.80
2023-09-19T06:35:09.068Z,2.47
2023-09-19T06:37:44.793Z,2.70
2023-09-19T06:40:16.765Z,3.00
2023-09-19T06:42:48.049Z,3.22
2023-09-19T06:45:20.243Z,2.92
2023-09-19T06:48:03.151Z,3.90
2023-09-19T06:50:45.278Z,2.78
2023-09-19T06:53:13.689Z,3.03
2023-09-19T06:55:45.107Z,3.28
2023-09-19T06:58:14.552Z,2.15
2023-09-19T07:01:00.663Z,3.72
2023-09-19T07:03:30.032Z,1.60
2023-09-19T07:06:00.727Z,4.00
2023-09-19T07:08:34.801Z,2.60
2023-09-19T07:11:08.959Z,2.70
2023-09-19T07:13:39.620Z,2.38
2023-09-19T07:16:10.096Z,5.15
2023-09-19T07:18:38.904Z,3.13
2023-09-19T07:21:16.489Z,2.15
2023-09-19T07:23:44.534Z,4.20
2023-09-19T07:26:12.586Z,2.63
2023-09-19T07:28:49.354Z,3.45
2023-09-19T07:31:20.308Z,3.10
2023-09-19T07:33:48.376Z,3.97
2023-09-19T07:36:17.158Z,2.47
2023-09-19T07:38:51.140Z,7.75
2023-09-19T07:41:28.349Z,2.13
2023-09-19T07:44:00.511Z,1.85
2023-09-19T07:46:28.669Z,2.45
2023-09-19T07:49:02.745Z,1.85
2023-09-19T07:51:34.144Z,3.92
2023-09-19T07:54:05.576Z,2.63
2023-09-19T07:56:40.987Z,1.88
2023-09-19T07:59:28.963Z,3.47
2023-09-19T08:02:09.632Z,2.42
2023-09-19T08:04:40.999Z,1.65
2023-09-19T08:07:09.935Z,1.60
2023-09-19T08:09:41.889Z,1.50
2023-09-19T08:12:11.483Z,1.90
2023-09-19T08:14:48.557Z,2.00
2023-09-19T08:17:16.622Z,1.88
2023-09-19T08:19:47.514Z,2.08
2023-09-19T08:22:32.234Z,5.03
2023-09-19T08:25:12.308Z,4.57
2023-09-19T08:27:49.098Z,3.88
2023-09-19T08:30:25.121Z,6.22
2023-09-19T08:33:00.347Z,3.10
2023-09-19T08:35:28.610Z,1.85
2023-09-19T08:38:01.778Z,1.50
2023-09-19T08:40:30.659Z,2.28
2023-09-19T08:42:59.587Z,1.98
2023-09-19T08:45:35.099Z,1.65
2023-09-19T08:48:15.111Z,2.55
2023-09-19T08:50:49.294Z,3.80
2023-09-19T08:53:28.934Z,3.38
2023-09-19T08:55:58.357Z,2.60
2023-09-19T08:58:34.758Z,1.83
2023-09-19T09:01:25.722Z,2.28
2023-09-19T09:03:55.444Z,2.40
2023-09-19T09:06:24.477Z,2.72
2023-09-19T09:09:00.904Z,1.88
2023-09-19T09:11:40.828Z,1.52
2023-09-19T09:14:09.497Z,3.58
2023-09-19T09:16:39.441Z,4.07
2023-09-19T09:19:10.436Z,2.00
2023-09-19T09:21:41.732Z,2.35
2023-09-19T09:24:41.021Z,3.20
2023-09-19T09:27:25.113Z,1.50
2023-09-19T09:30:31.336Z,4.68
2023-09-19T09:33:13.537Z,2.80
2023-09-19T09:35:54.008Z,4.43
2023-09-19T09:38:28.583Z,1.40
2023-09-19T09:41:02.793Z,3.38
2023-09-19T09:43:49.297Z,3.72
2023-09-19T09:46:35.279Z,1.92
2023-09-19T09:52:17.382Z,1.33
2023-09-19T09:55:08.581Z,2.55
2023-09-19T09:57:36.932Z,2.15
2023-09-19T10:00:21.478Z,4.57
2023-09-19T10:02:58.041Z,4.82
2023-09-19T10:08:20.413Z,4.70
2023-09-19T10:11:04.755Z,3.90
2023-09-19T10:13:43.126Z,3.90
2023-09-19T10:16:15.648Z,5.97
2023-09-19T10:18:59.532Z,3.22
2023-09-19T10:21:31.265Z,3.05
2023-09-19T10:24:05.960Z,2.92
2023-09-19T10:26:44.590Z,4.47
2023-09-19T10:29:27.007Z,4.07
2023-09-19T10:31:55.539Z,1.92
2023-09-19T10:34:25.660Z,1.67
2023-09-19T10:36:57.925Z,2.83
2023-09-19T10:39:26.475Z,5.47
2023-09-19T10:42:00.778Z,1.63
2023-09-19T10:44:35.805Z,3.67
2023-09-19T10:47:08.459Z,1.95
2023-09-19T10:49:48.167Z,2.78
2023-09-19T10:52:30.878Z,3.13
2023-09-19T10:55:04.273Z,2.58
2023-09-19T10:57:33.135Z,3.45
2023-09-19T11:00:22.625Z,2.63
2023-09-19T11:03:24.199Z,3.10
2023-09-19T11:06:14.853Z,3.63
2023-09-19T11:09:12.508Z,8.80
2023-09-19T11:11:47.229Z,3.85
2023-09-19T11:14:40.424Z,3.33
2023-09-19T11:17:38.326Z,3.90
2023-09-19T11:20:36.532Z,3.90
2023-09-19T11:23:23.584Z,6.63
2023-09-19T11:25:55.372Z,2.33
2023-09-19T11:28:33.595Z,3.53
2023-09-19T11:31:22.649Z,2.22
2023-09-19T11:34:13.674Z,3.75
2023-09-19T11:36:42.840Z,2.83
2023-09-19T11:39:30.292Z,3.58
2023-09-19T11:42:03.584Z,4.50
2023-09-19T11:44:45.269Z,6.15
2023-09-19T11:47:16.800Z,5.03
2023-09-19T11:49:57.506Z,5.93
2023-09-19T11:52:27.684Z,4.45
2023-09-19T11:55:10.214Z,4.57
2023-09-19T11:57:39.674Z,3.17
2023-09-19T12:00:20.251Z,2.78
2023-09-19T12:03:02.025Z,4.22
2023-09-19T12:05:34.487Z,4.43
2023-09-19T12:08:09.878Z,4.85
2023-09-19T12:10:56.185Z,3.75
2023-09-19T12:13:26.734Z,2.92
2023-09-19T12:16:01.668Z,4.10
2023-09-19T12:18:36.934Z,1.73
2023-09-19T12:21:23.852Z,2.10
2023-09-19T12:24:22.251Z,3.15
2023-09-19T12:26:53.274Z,3.33
2023-09-19T12:29:25.536Z,4.88
2023-09-19T12:31:58.707Z,2.53
2023-09-19T12:34:31.643Z,5.60
2023-09-19T12:37:13.777Z,4.45
2023-09-19T12:39:49.784Z,4.57
2023-09-19T12:42:30.785Z,2.08
2023-09-19T12:45:10.737Z,2.47
2023-09-19T12:47:44.590Z,4.50
2023-09-19T12:50:18.003Z,3.17
2023-09-19T12:52:53.980Z,1.95
2023-09-19T12:55:38.995Z,3.97
2023-09-19T12:58:13.988Z,6.05
2023-09-19T13:00:52.585Z,4.00
2023-09-19T13:03:27.404Z,6.35
2023-09-19T13:05:57.121Z,4.57
2023-09-19T13:08:30.462Z,2.63
2023-09-19T13:11:11.200Z,6.50
2023-09-19T13:13:46.564Z,3.72
2023-09-19T13:16:26.355Z,4.40
2023-09-19T13:18:58.874Z,2.00
2023-09-19T13:21:34.093Z,2.85
2023-09-19T13:24:20.331Z,2.38
2023-09-19T13:26:48.421Z,2.72
2023-09-19T13:29:24.064Z,7.13
2023-09-19T13:32:06.701Z,3.20
2023-09-19T13:34:34.798Z,4.18
2023-09-19T13:37:07.221Z,6.07
2023-09-19T13:39:35.223Z,3.20
2023-09-19T13:42:06.442Z,3.55
2023-09-19T13:44:37.205Z,5.10
2023-09-19T13:47:11.370Z,9.07
2023-09-19T13:49:43.726Z,2.45
2023-09-19T13:52:17.928Z,5.53
2023-09-19T13:55:01.705Z,1.75
2023-09-19T13:57:45.230Z,4.28
2023-09-19T14:00:19.631Z,7.50
2023-09-19T14:02:49.572Z,3.25
2023-09-19T14:05:23.853Z,2.92
2023-09-19T14:07:53.020Z,4.32
2023-09-19T14:10:21.764Z,2.22
2023-09-19T14:12:52.093Z,5.50
2023-09-19T14:15:36.037Z,1.42
2023-09-19T14:18:05.881Z,2.75
2023-09-19T14:20:40.338Z,6.05
2023-09-19T14:23:20.450Z,3.88
2023-09-19T14:25:54.780Z,2.05
2023-09-19T14:28:22.990Z,4.28
2023-09-19T14:30:56.817Z,4.85
2023-09-19T14:33:26.273Z,2.08
2023-09-19T14:35:54.286Z,4.47
2023-09-19T14:38:27.502Z,5.40
2023-09-19T14:41:02.471Z,3.63
2023-09-19T14:43:31.318Z,3.50
2023-09-19T14:46:11.857Z,3.75
2023-09-19T14:48:43.688Z,5.57
2023-09-19T14:51:15.044Z,4.85
2023-09-19T14:53:53.017Z,4.93
2023-09-19T14:56:27.049Z,5.22
2023-09-19T14:59:01.179Z,2.83
2023-09-19T15:01:29.942Z,4.65
2023-09-19T15:04:02.768Z,3.22
2023-09-19T15:06:31.362Z,3.75
2023-09-19T15:09:02.404Z,6.05
2023-09-19T15:11:30.416Z,2.90
2023-09-19T15:13:59.973Z,2.72
2023-09-19T15:16:28.429Z,3.80
2023-09-19T15:18:56.595Z,2.92
2023-09-19T15:21:27.908Z,4.35
2023-09-19T15:23:56.719Z,6.57
2023-09-19T15:26:39.987Z,2.88
2023-09-19T15:29:08.499Z,6.72
2023-09-19T15:31:38.154Z,2.03
2023-09-19T15:34:09.844Z,2.85
2023-09-19T15:36:40.117Z,5.22
2023-09-19T15:39:12.193Z,3.80
2023-09-19T15:41:42.037Z,3.58
2023-09-19T15:44:15.401Z,3.85
2023-09-19T15:46:44.055Z,2.70
2023-09-19T15:49:12.405Z,6.55
2023-09-19T15:51:42.050Z,7.78
2023-09-19T15:54:12.005Z,3.50
2023-09-19T15:56:42.223Z,2.53
2023-09-19T15:59:13.493Z,5.32
2023-09-19T16:01:43.963Z,3.55
2023-09-19T16:04:13.302Z,4.82
2023-09-19T16:06:43.520Z,11.27
2023-09-19T16:09:11.760Z,2.20
2023-09-19T16:11:40.227Z,4.28
2023-09-19T16:14:11.018Z,5.80
2023-09-19T16:16:39.664Z,3.80
2023-09-19T16:19:11.511Z,3.65
2023-09-19T16:21:41.626Z,4.50
2023-09-19T16:24:12.143Z,5.72
2023-09-19T16:26:40.248Z,6.10
2023-09-19T16:29:10.560Z,6.00
2023-09-19T16:31:38.696Z,4.10
2023-09-19T16:34:06.862Z,3.70
2023-09-19T16:36:35.661Z,6.28
2023-09-19T16:39:04.714Z,3.60
2023-09-19T16:41:37.628Z,4.72
2023-09-19T16:44:11.669Z,2.65
2023-09-19T16:46:42.527Z,6.38
2023-09-19T16:49:10.835Z,4.00
2023-09-19T16:51:39.322Z,4.70
2023-09-19T16:54:07.687Z,4.88
2023-09-19T16:56:38.638Z,5.57
2023-09-19T16:59:07.118Z,4.30
2023-09-19T17:01:36.687Z,3.58
2023-09-19T17:04:05.300Z,5.43
2023-09-19T17:06:33.359Z,5.47
2023-09-19T17:09:01.413Z,4.70
2023-09-19T17:11:32.467Z,2.92
2023-09-19T17:14:02.840Z,5.68
2023-09-19T17:16:31.631Z,5.03
2023-09-19T17:19:00.120Z,4.32
2023-09-19T17:21:29.172Z,4.65
2023-09-19T17:23:59.759Z,4.93
2023-09-19T17:26:29.087Z,6.00
2023-09-19T17:28:57.592Z,3.65
2023-09-19T17:31:29.959Z,5.93
2023-09-19T17:33:58.049Z,3.92
2023-09-19T17:36:28.147Z,6.72
2023-09-19T17:38:57.955Z,3.75
2023-09-19T17:41:26.830Z,3.80
2023-09-19T17:43:56.287Z,5.00
2023-09-19T17:46:26.458Z,4.75
2023-09-19T17:48:57.875Z,4.90
2023-09-19T17:51:27.700Z,5.22
2023-09-19T17:53:58.190Z,4.63
2023-09-19T17:56:26.642Z,6.32
2023-09-19T17:58:57.960Z,5.50
2023-09-19T18:01:28.838Z,4.20
2023-09-19T18:04:00.246Z,5.32
2023-09-19T18:06:29.408Z,8.65
2023-09-19T18:08:57.891Z,6.53
2023-09-19T18:11:27.626Z,4.45
2023-09-19T18:13:58.924Z,3.92
2023-09-19T18:16:28.820Z,5.68
2023-09-19T18:19:01.109Z,6.13
2023-09-19T18:21:29.579Z,6.55
2023-09-19T18:23:58.944Z,9.30
2023-09-19T18:26:27.295Z,7.47
2023-09-19T18:28:56.306Z,8.27
2023-09-19T18:31:25.294Z,6.05
2023-09-19T18:33:54.683Z,6.20
2023-09-19T18:36:24.556Z,6.03
2023-09-19T18:38:53.837Z,6.70
2023-09-19T18:41:22.065Z,20.45
2023-09-19T18:43:50.782Z,5.78
2023-09-19T18:46:19.335Z,4.30
2023-09-19T18:48:48.999Z,5.18
2023-09-19T18:51:19.635Z,5.57
2023-09-19T18:54:09.569Z,5.63
2023-09-19T18:56:42.276Z,17.48
2023-09-19T18:59:11.498Z,12.63
2023-09-19T19:01:39.649Z,10.45
2023-09-19T19:04:08.045Z,10.40
2023-09-19T19:06:39.239Z,8.77
2023-09-19T19:09:14.240Z,9.35
2023-09-19T19:11:42.547Z,5.40
2023-09-19T19:14:13.998Z,4.32
2023-09-19T19:16:44.789Z,6.25
2023-09-19T19:19:28.277Z,5.85
2023-09-19T19:22:11.817Z,7.72
2023-09-19T19:24:58.990Z,6.03
2023-09-19T19:27:33.113Z,7.00
2023-09-19T19:30:01.138Z,8.35
2023-09-19T19:32:29.430Z,6.90
2023-09-19T19:35:00.521Z,13.18
2023-09-19T19:37:28.531Z,9.55
2023-09-19T19:39:56.548Z,5.18
2023-09-19T19:42:32.869Z,8.43
2023-09-19T19:45:00.881Z,19.92
2023-09-19T19:47:34.245Z,11.95
2023-09-19T19:50:05.270Z,17.73
2023-09-19T19:52:34.018Z,15.52
2023-09-19T19:55:04.428Z,28.50
2023-09-19T19:57:41.370Z,76.35
2023-09-19T20:00:19.552Z,33.17
2023-09-19T20:02:52.397Z,53.72
2023-09-19T20:05:20.845Z,46.67
2023-09-19T20:08:04.798Z,33.63
2023-09-19T20:10:41.871Z,13.27
2023-09-19T20:13:32.550Z,7.45
2023-09-19T20:16:05.314Z,13.02
2023-09-19T20:18:34.070Z,7.72
2023-09-19T20:21:15.506Z,13.30
2023-09-19T20:23:55.789Z,8.90
2023-09-19T20:26:27.292Z,7.40
2023-09-19T20:28:56.733Z,8.88
2023-09-19T20:31:30.863Z,4.28
2023-09-19T20:34:10.284Z,5.72
2023-09-19T20:36:41.270Z,8.60
2023-09-19T20:39:11.306Z,5.13
2023-09-19T20:41:39.842Z,4.53
2023-09-19T20:44:13.072Z,4.25
2023-09-19T20:46:45.334Z,4.63
2023-09-19T20:49:13.467Z,4.38
2023-09-19T20:51:54.595Z,4.22
2023-09-19T20:54:27.565Z,5.68
2023-09-19T20:57:01.853Z,5.20
2023-09-19T20:59:31.832Z,2.75
2023-09-19T21:02:00.054Z,3.92
2023-09-19T21:04:39.234Z,2.50
2023-09-19T21:07:09.915Z,5.25
2023-09-19T21:09:38.300Z,3.22
2023-09-19T21:12:07.317Z,6.13
2023-09-19T21:14:37.502Z,3.58
2023-09-19T21:17:06.227Z,3.67
2023-09-19T21:19:37.359Z,3.53
2023-09-19T21:22:06.092Z,3.53
2023-09-19T21:24:34.249Z,5.53
2023-09-19T21:27:05.581Z,4.40
2023-09-19T21:29:33.684Z,5.30
2023-09-19T21:32:03.382Z,4.28
2023-09-19T21:34:31.898Z,4.32
2023-09-19T21:36:59.986Z,4.25
2023-09-19T21:39:31.292Z,4.53
2023-09-19T21:41:59.315Z,3.47
2023-09-19T21:44:30.214Z,3.00
2023-09-19T21:46:59.271Z,3.55
2023-09-19T21:49:28.793Z,3.40
2023-09-19T21:51:56.807Z,4.55
2023-09-19T21:54:27.598Z,4.97
2023-09-19T21:57:16.706Z,2.83
2023-09-19T21:59:50.592Z,6.13
2023-09-19T22:02:18.782Z,5.07
2023-09-19T22:04:53.645Z,4.93
2023-09-19T22:07:28.074Z,3.40
2023-09-19T22:09:56.051Z,5.53
2023-09-19T22:12:33.463Z,2.42
2023-09-19T22:15:07.318Z,4.53
2023-09-19T22:17:42.587Z,7.78
2023-09-19T22:20:26.901Z,4.00
2023-09-19T22:23:14.198Z,4.90
2023-09-19T22:25:47.639Z,4.30
2023-09-19T22:28:16.651Z,4.68
2023-09-19T22:30:48.070Z,7.97
2023-09-19T22:33:23.924Z,4.07
2023-09-19T22:36:05.928Z,4.60
2023-09-19T22:38:35.520Z,4.70
2023-09-19T22:41:09.661Z,3.67
2023-09-19T22:43:46.833Z,4.30
2023-09-19T22:46:15.746Z,4.60
2023-09-19T22:51:38.596Z,4.13
2023-09-19T22:54:13.439Z,3.33
2023-09-19T22:56:42.140Z,3.45
2023-09-19T22:59:16.338Z,4.32
2023-09-19T23:01:50.366Z,3.40
2023-09-19T23:04:19.270Z,4.00
2023-09-19T23:06:52.284Z,3.25
2023-09-19T23:09:27.723Z,3.88
2023-09-19T23:12:02.626Z,4.37
2023-09-19T23:14:34.959Z,3.97
2023-09-19T23:17:16.865Z,3.80
2023-09-19T23:20:05.428Z,3.75
2023-09-19T23:22:36.953Z,3.93
2023-09-19T23:25:13.881Z,6.72
2023-09-19T23:27:46.359Z,5.13
2023-09-19T23:30:18.275Z,4.35
2023-09-19T23:32:47.115Z,3.40
2023-09-19T23:35:16.134Z,2.53
2023-09-19T23:38:05.092Z,5.43
2023-09-19T23:40:33.289Z,6.23
2023-09-19T23:43:01.393Z,4.23
2023-09-19T23:45:38.267Z,3.70
2023-09-19T23:48:12.820Z,6.77
2023-09-19T23:50:49.486Z,3.83
2023-09-19T23:53:18.946Z,9.43
2023-09-19T23:55:48.909Z,4.53
2023-09-19T23:58:16.937Z,5.72
